sensor_id;sensor_type;location;lat;lon;timestamp;P1;durP1;ratioP1;P2;durP2;ratioP2
59950;SDS011;45812;53.540;9.774;2023-05-16T00:00:38;8.98;;;2.33;;
59950;SDS011;45812;53.540;9.774;2023-05-16T00:03:04;4.80;;;2.20;;
59950;SDS011;45812;53.540;9.774;2023-05-16T00:05:30;2.50;;;1.85;;
59950;SDS011;45812;53.540;9.774;2023-05-16T00:07:55;4.32;;;2.63;;
59950;SDS011;45812;53.540;9.774;2023-05-16T00:10:20;7.05;;;2.65;;
59950;SDS011;45812;53.540;9.774;2023-05-16T00:12:46;3.50;;;2.30;;
59950;SDS011;45812;53.540;9.774;2023-05-16T00:15:12;5.07;;;2.25;;
59950;SDS011;45812;53.540;9.774;2023-05-16T00:17:38;4.03;;;2.00;;
59950;SDS011;45812;53.540;9.774;2023-05-16T00:20:04;9.70;;;2.50;;
59950;SDS011;45812;53.540;9.774;2023-05-16T00:22:35;4.25;;;2.20;;
59950;SDS011;45812;53.540;9.774;2023-05-16T00:25:01;3.88;;;2.65;;
59950;SDS011;45812;53.540;9.774;2023-05-16T00:27:26;5.55;;;2.70;;
59950;SDS011;45812;53.540;9.774;2023-05-16T00:29:51;4.05;;;2.22;;
59950;SDS011;45812;53.540;9.774;2023-05-16T00:32:17;8.27;;;2.40;;
59950;SDS011;45812;53.540;9.774;2023-05-16T00:34:42;5.40;;;2.45;;
59950;SDS011;45812;53.540;9.774;2023-05-16T00:37:07;2.55;;;1.67;;
59950;SDS011;45812;53.540;9.774;2023-05-16T00:39:33;7.45;;;3.10;;
59950;SDS011;45812;53.540;9.774;2023-05-16T00:41:58;5.10;;;2.33;;
59950;SDS011;45812;53.540;9.774;2023-05-16T00:44:23;5.68;;;1.92;;
59950;SDS011;45812;53.540;9.774;2023-05-16T00:46:48;2.42;;;1.80;;
59950;SDS011;45812;53.540;9.774;2023-05-16T00:49:14;6.78;;;2.05;;
59950;SDS011;45812;53.540;9.774;2023-05-16T00:51:39;3.17;;;1.73;;
59950;SDS011;45812;53.540;9.774;2023-05-16T00:54:05;4.35;;;2.08;;
59950;SDS011;45812;53.540;9.774;2023-05-16T00:56:31;4.28;;;1.83;;
59950;SDS011;45812;53.540;9.774;2023-05-16T00:58:57;4.68;;;1.75;;
59950;SDS011;45812;53.540;9.774;2023-05-16T01:01:24;7.55;;;3.00;;
59950;SDS011;45812;53.540;9.774;2023-05-16T01:03:51;6.35;;;1.98;;
59950;SDS011;45812;53.540;9.774;2023-05-16T01:06:16;10.43;;;2.22;;
59950;SDS011;45812;53.540;9.774;2023-05-16T01:08:42;3.38;;;1.90;;
59950;SDS011;45812;53.540;9.774;2023-05-16T01:14:12;8.13;;;2.85;;
59950;SDS011;45812;53.540;9.774;2023-05-16T01:16:58;3.25;;;2.63;;
59950;SDS011;45812;53.540;9.774;2023-05-16T01:22:08;6.20;;;2.22;;
59950;SDS011;45812;53.540;9.774;2023-05-16T01:24:43;2.78;;;1.75;;
59950;SDS011;45812;53.540;9.774;2023-05-16T01:27:19;5.97;;;2.40;;
59950;SDS011;45812;53.540;9.774;2023-05-16T01:29:46;6.78;;;2.55;;
59950;SDS011;45812;53.540;9.774;2023-05-16T01:32:11;8.27;;;2.05;;
59950;SDS011;45812;53.540;9.774;2023-05-16T01:34:38;8.57;;;2.80;;
59950;SDS011;45812;53.540;9.774;2023-05-16T01:37:16;6.43;;;1.80;;
59950;SDS011;45812;53.540;9.774;2023-05-16T01:39:54;5.93;;;2.45;;
59950;SDS011;45812;53.540;9.774;2023-05-16T01:42:23;9.35;;;2.53;;
59950;SDS011;45812;53.540;9.774;2023-05-16T01:44:57;7.57;;;2.05;;
59950;SDS011;45812;53.540;9.774;2023-05-16T01:47:26;8.23;;;2.28;;
59950;SDS011;45812;53.540;9.774;2023-05-16T01:49:57;14.52;;;2.22;;
59950;SDS011;45812;53.540;9.774;2023-05-16T01:52:37;7.97;;;3.10;;
59950;SDS011;45812;53.540;9.774;2023-05-16T01:55:09;10.68;;;2.85;;
59950;SDS011;45812;53.540;9.774;2023-05-16T01:57:38;6.75;;;2.05;;
59950;SDS011;45812;53.540;9.774;2023-05-16T02:00:06;6.65;;;1.80;;
59950;SDS011;45812;53.540;9.774;2023-05-16T02:02:32;5.43;;;1.98;;
59950;SDS011;45812;53.540;9.774;2023-05-16T02:04:57;8.38;;;2.60;;
59950;SDS011;45812;53.540;9.774;2023-05-16T02:07:23;8.98;;;2.22;;
59950;SDS011;45812;53.540;9.774;2023-05-16T02:09:48;7.97;;;2.08;;
59950;SDS011;45812;53.540;9.774;2023-05-16T02:12:13;9.40;;;2.60;;
59950;SDS011;45812;53.540;9.774;2023-05-16T02:14:39;12.32;;;3.05;;
59950;SDS011;45812;53.540;9.774;2023-05-16T02:17:04;5.65;;;2.50;;
59950;SDS011;45812;53.540;9.774;2023-05-16T02:19:29;11.43;;;2.40;;
59950;SDS011;45812;53.540;9.774;2023-05-16T02:21:55;16.15;;;3.17;;
59950;SDS011;45812;53.540;9.774;2023-05-16T02:24:20;11.07;;;1.95;;
59950;SDS011;45812;53.540;9.774;2023-05-16T02:26:46;9.73;;;3.08;;
59950;SDS011;45812;53.540;9.774;2023-05-16T02:29:11;8.32;;;2.03;;
59950;SDS011;45812;53.540;9.774;2023-05-16T02:31:36;12.02;;;2.20;;
59950;SDS011;45812;53.540;9.774;2023-05-16T02:34:01;8.30;;;2.30;;
59950;SDS011;45812;53.540;9.774;2023-05-16T02:36:27;6.70;;;1.48;;
59950;SDS011;45812;53.540;9.774;2023-05-16T02:38:52;6.93;;;1.73;;
59950;SDS011;45812;53.540;9.774;2023-05-16T02:41:18;7.38;;;2.42;;
59950;SDS011;45812;53.540;9.774;2023-05-16T02:43:46;6.55;;;2.13;;
59950;SDS011;45812;53.540;9.774;2023-05-16T02:46:27;5.20;;;2.03;;
59950;SDS011;45812;53.540;9.774;2023-05-16T02:48:54;11.15;;;2.42;;
59950;SDS011;45812;53.540;9.774;2023-05-16T02:51:20;7.32;;;1.80;;
59950;SDS011;45812;53.540;9.774;2023-05-16T02:53:47;16.35;;;2.58;;
59950;SDS011;45812;53.540;9.774;2023-05-16T02:56:12;8.65;;;2.03;;
59950;SDS011;45812;53.540;9.774;2023-05-16T02:58:38;11.05;;;1.90;;
59950;SDS011;45812;53.540;9.774;2023-05-16T03:01:03;10.70;;;2.10;;
59950;SDS011;45812;53.540;9.774;2023-05-16T03:03:28;5.72;;;1.88;;
59950;SDS011;45812;53.540;9.774;2023-05-16T03:05:54;5.45;;;1.85;;
59950;SDS011;45812;53.540;9.774;2023-05-16T03:08:19;8.45;;;2.58;;
59950;SDS011;45812;53.540;9.774;2023-05-16T03:10:44;10.50;;;2.15;;
59950;SDS011;45812;53.540;9.774;2023-05-16T03:13:10;4.85;;;2.70;;
59950;SDS011;45812;53.540;9.774;2023-05-16T03:15:35;12.15;;;3.25;;
59950;SDS011;45812;53.540;9.774;2023-05-16T03:18:00;10.35;;;2.40;;
59950;SDS011;45812;53.540;9.774;2023-05-16T03:20:26;18.58;;;2.65;;
59950;SDS011;45812;53.540;9.774;2023-05-16T03:22:51;13.60;;;2.63;;
59950;SDS011;45812;53.540;9.774;2023-05-16T03:25:16;12.20;;;3.05;;
59950;SDS011;45812;53.540;9.774;2023-05-16T03:27:41;15.65;;;2.42;;
59950;SDS011;45812;53.540;9.774;2023-05-16T03:30:07;11.35;;;1.83;;
59950;SDS011;45812;53.540;9.774;2023-05-16T03:32:33;12.90;;;2.20;;
59950;SDS011;45812;53.540;9.774;2023-05-16T03:34:58;20.45;;;2.67;;
59950;SDS011;45812;53.540;9.774;2023-05-16T03:37:23;12.13;;;2.22;;
59950;SDS011;45812;53.540;9.774;2023-05-16T03:39:49;16.35;;;3.13;;
59950;SDS011;45812;53.540;9.774;2023-05-16T03:42:15;12.35;;;2.75;;
59950;SDS011;45812;53.540;9.774;2023-05-16T03:44:42;9.20;;;2.42;;
59950;SDS011;45812;53.540;9.774;2023-05-16T03:47:07;7.88;;;2.45;;
59950;SDS011;45812;53.540;9.774;2023-05-16T03:49:32;12.93;;;1.92;;
59950;SDS011;45812;53.540;9.774;2023-05-16T03:51:57;8.20;;;1.92;;
59950;SDS011;45812;53.540;9.774;2023-05-16T03:54:23;11.18;;;2.38;;
59950;SDS011;45812;53.540;9.774;2023-05-16T03:56:48;12.65;;;2.20;;
59950;SDS011;45812;53.540;9.774;2023-05-16T03:59:13;9.68;;;2.17;;
59950;SDS011;45812;53.540;9.774;2023-05-16T04:01:39;8.07;;;1.80;;
59950;SDS011;45812;53.540;9.774;2023-05-16T04:04:04;8.73;;;1.98;;
59950;SDS011;45812;53.540;9.774;2023-05-16T04:06:29;13.70;;;3.08;;
59950;SDS011;45812;53.540;9.774;2023-05-16T04:08:55;12.75;;;2.38;;
59950;SDS011;45812;53.540;9.774;2023-05-16T04:11:21;17.60;;;2.65;;
59950;SDS011;45812;53.540;9.774;2023-05-16T04:13:46;10.10;;;2.17;;
59950;SDS011;45812;53.540;9.774;2023-05-16T04:16:11;10.07;;;1.90;;
59950;SDS011;45812;53.540;9.774;2023-05-16T04:18:36;7.47;;;2.50;;
59950;SDS011;45812;53.540;9.774;2023-05-16T04:21:03;10.75;;;2.30;;
59950;SDS011;45812;53.540;9.774;2023-05-16T04:23:28;14.65;;;2.92;;
59950;SDS011;45812;53.540;9.774;2023-05-16T04:25:54;10.13;;;2.33;;
59950;SDS011;45812;53.540;9.774;2023-05-16T04:28:20;12.55;;;2.33;;
59950;SDS011;45812;53.540;9.774;2023-05-16T04:30:46;16.52;;;2.05;;
59950;SDS011;45812;53.540;9.774;2023-05-16T04:33:12;9.25;;;1.58;;
59950;SDS011;45812;53.540;9.774;2023-05-16T04:35:37;11.65;;;1.92;;
59950;SDS011;45812;53.540;9.774;2023-05-16T04:38:03;16.33;;;2.38;;
59950;SDS011;45812;53.540;9.774;2023-05-16T04:40:28;11.60;;;2.53;;
59950;SDS011;45812;53.540;9.774;2023-05-16T04:42:54;11.40;;;2.40;;
59950;SDS011;45812;53.540;9.774;2023-05-16T04:45:19;12.48;;;2.17;;
59950;SDS011;45812;53.540;9.774;2023-05-16T04:47:45;13.90;;;2.20;;
59950;SDS011;45812;53.540;9.774;2023-05-16T04:50:10;12.80;;;2.08;;
59950;SDS011;45812;53.540;9.774;2023-05-16T04:52:35;6.25;;;1.75;;
59950;SDS011;45812;53.540;9.774;2023-05-16T04:55:02;12.15;;;1.98;;
59950;SDS011;45812;53.540;9.774;2023-05-16T04:57:27;23.80;;;2.85;;
59950;SDS011;45812;53.540;9.774;2023-05-16T04:59:52;14.60;;;2.63;;
59950;SDS011;45812;53.540;9.774;2023-05-16T05:02:18;14.10;;;2.50;;
59950;SDS011;45812;53.540;9.774;2023-05-16T05:04:43;11.77;;;2.35;;
59950;SDS011;45812;53.540;9.774;2023-05-16T05:07:08;5.38;;;1.35;;
59950;SDS011;45812;53.540;9.774;2023-05-16T05:09:34;11.10;;;2.70;;
59950;SDS011;45812;53.540;9.774;2023-05-16T05:11:59;14.57;;;2.28;;
59950;SDS011;45812;53.540;9.774;2023-05-16T05:14:24;7.38;;;1.83;;
59950;SDS011;45812;53.540;9.774;2023-05-16T05:16:50;8.88;;;2.00;;
59950;SDS011;45812;53.540;9.774;2023-05-16T05:19:15;8.68;;;1.98;;
59950;SDS011;45812;53.540;9.774;2023-05-16T05:21:40;8.43;;;2.17;;
59950;SDS011;45812;53.540;9.774;2023-05-16T05:24:06;9.32;;;1.30;;
59950;SDS011;45812;53.540;9.774;2023-05-16T05:26:31;12.02;;;2.30;;
59950;SDS011;45812;53.540;9.774;2023-05-16T05:28:56;10.50;;;1.92;;
59950;SDS011;45812;53.540;9.774;2023-05-16T05:31:21;9.93;;;1.90;;
59950;SDS011;45812;53.540;9.774;2023-05-16T05:33:47;8.13;;;2.00;;
59950;SDS011;45812;53.540;9.774;2023-05-16T05:36:12;10.25;;;2.70;;
59950;SDS011;45812;53.540;9.774;2023-05-16T05:38:37;12.02;;;1.58;;
59950;SDS011;45812;53.540;9.774;2023-05-16T05:41:03;14.15;;;2.22;;
59950;SDS011;45812;53.540;9.774;2023-05-16T05:43:29;7.97;;;1.55;;
59950;SDS011;45812;53.540;9.774;2023-05-16T05:45:54;12.35;;;1.77;;
59950;SDS011;45812;53.540;9.774;2023-05-16T05:48:20;5.97;;;1.88;;
59950;SDS011;45812;53.540;9.774;2023-05-16T05:50:45;14.63;;;2.45;;
59950;SDS011;45812;53.540;9.774;2023-05-16T05:53:11;6.38;;;1.77;;
59950;SDS011;45812;53.540;9.774;2023-05-16T05:55:36;10.38;;;1.60;;
59950;SDS011;45812;53.540;9.774;2023-05-16T05:58:01;10.73;;;1.77;;
59950;SDS011;45812;53.540;9.774;2023-05-16T06:00:27;13.63;;;1.80;;
59950;SDS011;45812;53.540;9.774;2023-05-16T06:02:53;4.85;;;1.70;;
59950;SDS011;45812;53.540;9.774;2023-05-16T06:05:18;9.27;;;2.05;;
59950;SDS011;45812;53.540;9.774;2023-05-16T06:07:44;12.55;;;1.80;;
59950;SDS011;45812;53.540;9.774;2023-05-16T06:10:09;8.73;;;1.40;;
59950;SDS011;45812;53.540;9.774;2023-05-16T06:12:34;8.55;;;2.28;;
59950;SDS011;45812;53.540;9.774;2023-05-16T06:15:00;10.98;;;1.73;;
59950;SDS011;45812;53.540;9.774;2023-05-16T06:17:25;12.30;;;2.00;;
59950;SDS011;45812;53.540;9.774;2023-05-16T06:19:50;14.38;;;3.42;;
59950;SDS011;45812;53.540;9.774;2023-05-16T06:22:16;8.30;;;1.85;;
59950;SDS011;45812;53.540;9.774;2023-05-16T06:24:41;4.65;;;1.65;;
59950;SDS011;45812;53.540;9.774;2023-05-16T06:27:06;13.63;;;2.15;;
59950;SDS011;45812;53.540;9.774;2023-05-16T06:29:32;8.57;;;2.05;;
59950;SDS011;45812;53.540;9.774;2023-05-16T06:31:57;11.00;;;2.78;;
59950;SDS011;45812;53.540;9.774;2023-05-16T06:34:22;11.73;;;1.60;;
59950;SDS011;45812;53.540;9.774;2023-05-16T06:36:52;11.63;;;2.47;;
59950;SDS011;45812;53.540;9.774;2023-05-16T06:39:17;4.88;;;1.25;;
59950;SDS011;45812;53.540;9.774;2023-05-16T06:41:42;6.60;;;1.38;;
59950;SDS011;45812;53.540;9.774;2023-05-16T06:44:08;6.20;;;1.52;;
59950;SDS011;45812;53.540;9.774;2023-05-16T06:46:33;6.95;;;1.20;;
59950;SDS011;45812;53.540;9.774;2023-05-16T06:48:58;9.32;;;1.77;;
59950;SDS011;45812;53.540;9.774;2023-05-16T06:51:23;7.23;;;1.43;;
59950;SDS011;45812;53.540;9.774;2023-05-16T06:53:49;8.90;;;2.28;;
59950;SDS011;45812;53.540;9.774;2023-05-16T06:56:14;10.20;;;2.53;;
59950;SDS011;45812;53.540;9.774;2023-05-16T06:58:40;9.38;;;2.65;;
59950;SDS011;45812;53.540;9.774;2023-05-16T07:01:05;9.90;;;1.65;;
59950;SDS011;45812;53.540;9.774;2023-05-16T07:03:30;14.55;;;2.30;;
59950;SDS011;45812;53.540;9.774;2023-05-16T07:05:56;6.25;;;1.35;;
59950;SDS011;45812;53.540;9.774;2023-05-16T07:08:21;9.48;;;2.25;;
59950;SDS011;45812;53.540;9.774;2023-05-16T07:10:47;6.03;;;1.38;;
59950;SDS011;45812;53.540;9.774;2023-05-16T07:13:12;8.57;;;1.90;;
59950;SDS011;45812;53.540;9.774;2023-05-16T07:15:37;5.80;;;1.38;;
59950;SDS011;45812;53.540;9.774;2023-05-16T07:18:03;2.25;;;1.02;;
59950;SDS011;45812;53.540;9.774;2023-05-16T07:20:28;11.25;;;1.48;;
59950;SDS011;45812;53.540;9.774;2023-05-16T07:22:53;9.55;;;1.65;;
59950;SDS011;45812;53.540;9.774;2023-05-16T07:25:21;11.10;;;2.13;;
59950;SDS011;45812;53.540;9.774;2023-05-16T07:27:46;11.13;;;2.05;;
59950;SDS011;45812;53.540;9.774;2023-05-16T07:30:12;7.57;;;1.97;;
59950;SDS011;45812;53.540;9.774;2023-05-16T07:32:38;10.52;;;1.83;;
59950;SDS011;45812;53.540;9.774;2023-05-16T07:35:03;14.07;;;2.15;;
59950;SDS011;45812;53.540;9.774;2023-05-16T07:37:29;5.00;;;1.50;;
59950;SDS011;45812;53.540;9.774;2023-05-16T07:39:54;8.95;;;2.05;;
59950;SDS011;45812;53.540;9.774;2023-05-16T07:42:20;8.63;;;1.85;;
59950;SDS011;45812;53.540;9.774;2023-05-16T07:44:45;4.10;;;0.85;;
59950;SDS011;45812;53.540;9.774;2023-05-16T07:47:10;3.08;;;1.15;;
59950;SDS011;45812;53.540;9.774;2023-05-16T07:49:36;7.93;;;1.17;;
59950;SDS011;45812;53.540;9.774;2023-05-16T07:52:01;10.68;;;1.60;;
59950;SDS011;45812;53.540;9.774;2023-05-16T07:54:26;6.78;;;1.35;;
59950;SDS011;45812;53.540;9.774;2023-05-16T07:56:51;5.67;;;1.17;;
59950;SDS011;45812;53.540;9.774;2023-05-16T07:59:17;1.13;;;0.63;;
59950;SDS011;45812;53.540;9.774;2023-05-16T08:01:42;17.73;;;3.08;;
59950;SDS011;45812;53.540;9.774;2023-05-16T08:04:07;8.45;;;1.73;;
59950;SDS011;45812;53.540;9.774;2023-05-16T08:06:33;4.93;;;1.37;;
59950;SDS011;45812;53.540;9.774;2023-05-16T08:08:58;9.25;;;1.58;;
59950;SDS011;45812;53.540;9.774;2023-05-16T08:11:23;5.38;;;1.48;;
59950;SDS011;45812;53.540;9.774;2023-05-16T08:13:49;9.18;;;2.45;;
59950;SDS011;45812;53.540;9.774;2023-05-16T08:16:15;5.95;;;1.30;;
59950;SDS011;45812;53.540;9.774;2023-05-16T08:18:40;7.38;;;1.42;;
59950;SDS011;45812;53.540;9.774;2023-05-16T08:21:06;5.78;;;1.85;;
59950;SDS011;45812;53.540;9.774;2023-05-16T08:23:33;10.88;;;1.98;;
59950;SDS011;45812;53.540;9.774;2023-05-16T08:25:58;8.95;;;1.75;;
59950;SDS011;45812;53.540;9.774;2023-05-16T08:28:23;6.22;;;1.25;;
59950;SDS011;45812;53.540;9.774;2023-05-16T08:30:49;7.40;;;1.98;;
59950;SDS011;45812;53.540;9.774;2023-05-16T08:33:14;11.27;;;1.90;;
59950;SDS011;45812;53.540;9.774;2023-05-16T08:35:43;3.80;;;1.92;;
59950;SDS011;45812;53.540;9.774;2023-05-16T08:38:09;9.68;;;1.63;;
59950;SDS011;45812;53.540;9.774;2023-05-16T08:40:34;7.78;;;2.30;;
59950;SDS011;45812;53.540;9.774;2023-05-16T08:43:00;4.85;;;1.55;;
59950;SDS011;45812;53.540;9.774;2023-05-16T08:45:25;11.85;;;1.98;;
59950;SDS011;45812;53.540;9.774;2023-05-16T08:47:53;2.58;;;1.58;;
59950;SDS011;45812;53.540;9.774;2023-05-16T08:50:18;10.15;;;2.22;;
59950;SDS011;45812;53.540;9.774;2023-05-16T08:52:44;5.07;;;1.70;;
59950;SDS011;45812;53.540;9.774;2023-05-16T08:55:11;7.95;;;1.50;;
59950;SDS011;45812;53.540;9.774;2023-05-16T08:57:39;9.52;;;1.55;;
59950;SDS011;45812;53.540;9.774;2023-05-16T09:00:08;3.17;;;1.15;;
59950;SDS011;45812;53.540;9.774;2023-05-16T09:02:40;4.45;;;1.10;;
59950;SDS011;45812;53.540;9.774;2023-05-16T09:05:07;1.65;;;0.85;;
59950;SDS011;45812;53.540;9.774;2023-05-16T09:07:34;4.72;;;0.93;;
59950;SDS011;45812;53.540;9.774;2023-05-16T09:10:00;3.63;;;1.48;;
59950;SDS011;45812;53.540;9.774;2023-05-16T09:12:25;4.60;;;0.82;;
59950;SDS011;45812;53.540;9.774;2023-05-16T09:14:50;6.38;;;1.48;;
59950;SDS011;45812;53.540;9.774;2023-05-16T09:17:16;9.98;;;2.10;;
59950;SDS011;45812;53.540;9.774;2023-05-16T09:19:41;3.60;;;1.13;;
59950;SDS011;45812;53.540;9.774;2023-05-16T09:22:08;8.20;;;1.30;;
59950;SDS011;45812;53.540;9.774;2023-05-16T09:24:38;5.75;;;1.50;;
59950;SDS011;45812;53.540;9.774;2023-05-16T09:27:08;8.70;;;1.88;;
59950;SDS011;45812;53.540;9.774;2023-05-16T09:29:34;4.90;;;1.48;;
59950;SDS011;45812;53.540;9.774;2023-05-16T09:32:09;2.63;;;1.17;;
59950;SDS011;45812;53.540;9.774;2023-05-16T09:34:47;11.27;;;1.20;;
59950;SDS011;45812;53.540;9.774;2023-05-16T09:37:16;6.03;;;1.45;;
59950;SDS011;45812;53.540;9.774;2023-05-16T09:39:46;7.82;;;1.67;;
59950;SDS011;45812;53.540;9.774;2023-05-16T09:42:13;2.97;;;1.00;;
59950;SDS011;45812;53.540;9.774;2023-05-16T09:44:40;3.58;;;1.27;;
59950;SDS011;45812;53.540;9.774;2023-05-16T09:47:05;6.45;;;1.13;;
59950;SDS011;45812;53.540;9.774;2023-05-16T09:49:31;7.65;;;1.60;;
59950;SDS011;45812;53.540;9.774;2023-05-16T09:52:00;9.45;;;1.90;;
59950;SDS011;45812;53.540;9.774;2023-05-16T09:54:33;8.73;;;2.00;;
59950;SDS011;45812;53.540;9.774;2023-05-16T09:56:59;1.40;;;0.90;;
59950;SDS011;45812;53.540;9.774;2023-05-16T09:59:24;2.22;;;1.05;;
59950;SDS011;45812;53.540;9.774;2023-05-16T10:01:52;2.70;;;1.10;;
59950;SDS011;45812;53.540;9.774;2023-05-16T10:04:18;3.53;;;1.02;;
59950;SDS011;45812;53.540;9.774;2023-05-16T10:06:44;4.05;;;0.98;;
59950;SDS011;45812;53.540;9.774;2023-05-16T10:09:10;6.45;;;1.58;;
59950;SDS011;45812;53.540;9.774;2023-05-16T10:11:41;7.40;;;1.88;;
59950;SDS011;45812;53.540;9.774;2023-05-16T10:14:08;8.30;;;1.95;;
59950;SDS011;45812;53.540;9.774;2023-05-16T10:16:35;10.93;;;2.10;;
59950;SDS011;45812;53.540;9.774;2023-05-16T10:19:01;5.65;;;1.35;;
59950;SDS011;45812;53.540;9.774;2023-05-16T10:21:27;8.70;;;1.80;;
59950;SDS011;45812;53.540;9.774;2023-05-16T10:23:54;8.65;;;1.77;;
59950;SDS011;45812;53.540;9.774;2023-05-16T10:26:22;8.90;;;1.42;;
59950;SDS011;45812;53.540;9.774;2023-05-16T10:28:48;9.70;;;1.73;;
59950;SDS011;45812;53.540;9.774;2023-05-16T10:31:14;6.15;;;1.27;;
59950;SDS011;45812;53.540;9.774;2023-05-16T10:33:40;5.88;;;1.70;;
59950;SDS011;45812;53.540;9.774;2023-05-16T10:36:06;7.22;;;1.45;;
59950;SDS011;45812;53.540;9.774;2023-05-16T10:38:33;4.78;;;1.33;;
59950;SDS011;45812;53.540;9.774;2023-05-16T10:41:00;7.00;;;1.83;;
59950;SDS011;45812;53.540;9.774;2023-05-16T10:43:26;6.03;;;1.40;;
59950;SDS011;45812;53.540;9.774;2023-05-16T10:45:58;9.45;;;1.40;;
59950;SDS011;45812;53.540;9.774;2023-05-16T10:48:31;7.97;;;1.52;;
59950;SDS011;45812;53.540;9.774;2023-05-16T10:51:02;10.80;;;1.60;;
59950;SDS011;45812;53.540;9.774;2023-05-16T10:53:29;9.15;;;1.88;;
59950;SDS011;45812;53.540;9.774;2023-05-16T11:03:39;0.98;;;0.93;;
59950;SDS011;45812;53.540;9.774;2023-05-16T11:06:28;3.35;;;1.05;;
59950;SDS011;45812;53.540;9.774;2023-05-16T11:09:24;3.60;;;1.10;;
59950;SDS011;45812;53.540;9.774;2023-05-16T11:14:38;7.60;;;1.47;;
59950;SDS011;45812;53.540;9.774;2023-05-16T11:17:12;4.30;;;0.98;;
59950;SDS011;45812;53.540;9.774;2023-05-16T11:24:56;4.60;;;1.02;;
59950;SDS011;45812;53.540;9.774;2023-05-16T11:27:27;3.63;;;1.30;;
59950;SDS011;45812;53.540;9.774;2023-05-16T11:29:57;9.77;;;2.00;;
59950;SDS011;45812;53.540;9.774;2023-05-16T11:32:36;8.63;;;1.15;;
59950;SDS011;45812;53.540;9.774;2023-05-16T11:35:03;4.63;;;0.90;;
59950;SDS011;45812;53.540;9.774;2023-05-16T11:37:29;3.80;;;1.02;;
59950;SDS011;45812;53.540;9.774;2023-05-16T11:39:58;2.22;;;1.05;;
59950;SDS011;45812;53.540;9.774;2023-05-16T11:42:28;1.13;;;0.73;;
59950;SDS011;45812;53.540;9.774;2023-05-16T11:45:08;2.63;;;0.70;;
59950;SDS011;45812;53.540;9.774;2023-05-16T11:47:36;5.20;;;0.80;;
59950;SDS011;45812;53.540;9.774;2023-05-16T11:50:05;3.58;;;0.90;;
59950;SDS011;45812;53.540;9.774;2023-05-16T11:52:38;5.68;;;1.00;;
59950;SDS011;45812;53.540;9.774;2023-05-16T11:55:04;9.68;;;1.70;;
59950;SDS011;45812;53.540;9.774;2023-05-16T11:57:31;4.40;;;1.02;;
59950;SDS011;45812;53.540;9.774;2023-05-16T12:00:01;3.58;;;1.55;;
59950;SDS011;45812;53.540;9.774;2023-05-16T12:02:28;4.85;;;1.75;;
59950;SDS011;45812;53.540;9.774;2023-05-16T12:04:53;2.97;;;1.17;;
59950;SDS011;45812;53.540;9.774;2023-05-16T12:07:19;2.72;;;0.98;;
59950;SDS011;45812;53.540;9.774;2023-05-16T12:09:51;2.33;;;0.90;;
59950;SDS011;45812;53.540;9.774;2023-05-16T12:12:18;4.60;;;0.68;;
59950;SDS011;45812;53.540;9.774;2023-05-16T12:14:44;4.40;;;1.33;;
59950;SDS011;45812;53.540;9.774;2023-05-16T12:17:10;4.82;;;1.02;;
59950;SDS011;45812;53.540;9.774;2023-05-16T12:19:35;5.35;;;1.10;;
59950;SDS011;45812;53.540;9.774;2023-05-16T12:22:00;2.75;;;1.20;;
59950;SDS011;45812;53.540;9.774;2023-05-16T12:24:29;5.67;;;1.07;;
59950;SDS011;45812;53.540;9.774;2023-05-16T12:26:55;4.47;;;0.75;;
59950;SDS011;45812;53.540;9.774;2023-05-16T12:29:21;7.32;;;1.35;;
59950;SDS011;45812;53.540;9.774;2023-05-16T12:31:51;6.78;;;1.70;;
59950;SDS011;45812;53.540;9.774;2023-05-16T12:34:17;4.68;;;1.80;;
59950;SDS011;45812;53.540;9.774;2023-05-16T12:36:45;11.50;;;2.40;;
59950;SDS011;45812;53.540;9.774;2023-05-16T12:39:15;9.63;;;1.67;;
59950;SDS011;45812;53.540;9.774;2023-05-16T12:41:41;5.50;;;1.52;;
59950;SDS011;45812;53.540;9.774;2023-05-16T12:44:16;2.78;;;1.30;;
59950;SDS011;45812;53.540;9.774;2023-05-16T12:46:47;3.78;;;1.70;;
59950;SDS011;45812;53.540;9.774;2023-05-16T12:49:15;2.53;;;1.30;;
59950;SDS011;45812;53.540;9.774;2023-05-16T12:51:50;6.10;;;1.33;;
59950;SDS011;45812;53.540;9.774;2023-05-16T12:54:16;4.93;;;1.30;;
59950;SDS011;45812;53.540;9.774;2023-05-16T12:56:41;6.93;;;1.23;;
59950;SDS011;45812;53.540;9.774;2023-05-16T12:59:07;7.32;;;1.85;;
59950;SDS011;45812;53.540;9.774;2023-05-16T13:01:33;3.50;;;1.23;;
59950;SDS011;45812;53.540;9.774;2023-05-16T13:03:59;4.57;;;1.50;;
59950;SDS011;45812;53.540;9.774;2023-05-16T13:06:25;5.55;;;1.80;;
59950;SDS011;45812;53.540;9.774;2023-05-16T13:08:50;6.50;;;2.58;;
59950;SDS011;45812;53.540;9.774;2023-05-16T13:11:16;5.68;;;1.15;;
59950;SDS011;45812;53.540;9.774;2023-05-16T13:13:41;5.03;;;1.10;;
59950;SDS011;45812;53.540;9.774;2023-05-16T13:16:06;5.53;;;1.13;;
59950;SDS011;45812;53.540;9.774;2023-05-16T13:18:32;3.93;;;1.30;;
59950;SDS011;45812;53.540;9.774;2023-05-16T13:20:58;5.15;;;1.88;;
59950;SDS011;45812;53.540;9.774;2023-05-16T13:23:23;10.03;;;0.97;;
59950;SDS011;45812;53.540;9.774;2023-05-16T13:25:48;2.22;;;0.60;;
59950;SDS011;45812;53.540;9.774;2023-05-16T13:28:13;3.97;;;1.00;;
59950;SDS011;45812;53.540;9.774;2023-05-16T13:30:39;4.30;;;0.90;;
59950;SDS011;45812;53.540;9.774;2023-05-16T13:33:05;3.97;;;0.80;;
59950;SDS011;45812;53.540;9.774;2023-05-16T13:35:30;3.85;;;1.20;;
59950;SDS011;45812;53.540;9.774;2023-05-16T13:37:55;1.83;;;0.43;;
59950;SDS011;45812;53.540;9.774;2023-05-16T13:40:21;1.83;;;0.50;;
59950;SDS011;45812;53.540;9.774;2023-05-16T13:42:46;2.50;;;0.82;;
59950;SDS011;45812;53.540;9.774;2023-05-16T13:45:11;4.63;;;1.08;;
59950;SDS011;45812;53.540;9.774;2023-05-16T13:47:37;2.50;;;0.80;;
59950;SDS011;45812;53.540;9.774;2023-05-16T13:50:02;2.30;;;1.17;;
59950;SDS011;45812;53.540;9.774;2023-05-16T13:52:31;3.38;;;0.90;;
59950;SDS011;45812;53.540;9.774;2023-05-16T13:54:57;6.45;;;0.90;;
59950;SDS011;45812;53.540;9.774;2023-05-16T13:57:22;1.10;;;0.77;;
59950;SDS011;45812;53.540;9.774;2023-05-16T13:59:47;3.08;;;0.85;;
59950;SDS011;45812;53.540;9.774;2023-05-16T14:02:13;2.05;;;1.10;;
59950;SDS011;45812;53.540;9.774;2023-05-16T14:04:38;4.38;;;1.20;;
59950;SDS011;45812;53.540;9.774;2023-05-16T14:07:03;0.70;;;0.40;;
59950;SDS011;45812;53.540;9.774;2023-05-16T14:09:29;1.65;;;0.70;;
59950;SDS011;45812;53.540;9.774;2023-05-16T14:11:55;3.05;;;0.63;;
59950;SDS011;45812;53.540;9.774;2023-05-16T14:14:20;2.73;;;1.33;;
59950;SDS011;45812;53.540;9.774;2023-05-16T14:16:45;7.70;;;0.90;;
59950;SDS011;45812;53.540;9.774;2023-05-16T14:19:11;1.77;;;0.88;;
59950;SDS011;45812;53.540;9.774;2023-05-16T14:21:36;0.98;;;0.60;;
59950;SDS011;45812;53.540;9.774;2023-05-16T14:24:02;2.47;;;0.80;;
59950;SDS011;45812;53.540;9.774;2023-05-16T14:26:27;7.40;;;1.27;;
59950;SDS011;45812;53.540;9.774;2023-05-16T14:28:52;1.07;;;0.70;;
59950;SDS011;45812;53.540;9.774;2023-05-16T14:31:19;7.00;;;1.50;;
59950;SDS011;45812;53.540;9.774;2023-05-16T14:33:45;3.10;;;1.07;;
59950;SDS011;45812;53.540;9.774;2023-05-16T14:36:10;7.43;;;1.35;;
59950;SDS011;45812;53.540;9.774;2023-05-16T14:38:37;5.32;;;1.17;;
59950;SDS011;45812;53.540;9.774;2023-05-16T14:41:02;1.70;;;1.10;;
59950;SDS011;45812;53.540;9.774;2023-05-16T14:43:28;4.75;;;1.48;;
59950;SDS011;45812;53.540;9.774;2023-05-16T14:45:53;4.60;;;1.40;;
59950;SDS011;45812;53.540;9.774;2023-05-16T14:48:18;4.50;;;0.93;;
59950;SDS011;45812;53.540;9.774;2023-05-16T14:50:43;4.20;;;1.20;;
59950;SDS011;45812;53.540;9.774;2023-05-16T14:53:09;2.97;;;1.52;;
59950;SDS011;45812;53.540;9.774;2023-05-16T14:55:34;3.08;;;1.58;;
59950;SDS011;45812;53.540;9.774;2023-05-16T14:58:00;2.10;;;1.17;;
59950;SDS011;45812;53.540;9.774;2023-05-16T15:00:25;3.03;;;1.23;;
59950;SDS011;45812;53.540;9.774;2023-05-16T15:02:51;4.03;;;1.10;;